sensor_id;sensor_type;location;lat;lon;timestamp;P1;durP1;ratioP1;P2;durP2;ratioP2
3943;SDS011;1986;52.546;13.428;2022-10-17T00:02:21;7.53;;;7.43;;
3943;SDS011;1986;52.546;13.428;2022-10-17T00:04:48;7.80;;;7.70;;
3943;SDS011;1986;52.546;13.428;2022-10-17T00:07:15;10.03;;;9.23;;
3943;SDS011;1986;52.546;13.428;2022-10-17T00:09:42;8.27;;;8.07;;
3943;SDS011;1986;52.546;13.428;2022-10-17T00:12:09;7.83;;;7.73;;
3943;SDS011;1986;52.546;13.428;2022-10-17T00:14:37;8.30;;;8.10;;
3943;SDS011;1986;52.546;13.428;2022-10-17T00:17:04;8.57;;;8.37;;
3943;SDS011;1986;52.546;13.428;2022-10-17T00:19:31;8.73;;;8.53;;
3943;SDS011;1986;52.546;13.428;2022-10-17T00:21:58;10.90;;;10.40;;
3943;SDS011;1986;52.546;13.428;2022-10-17T00:24:25;9.07;;;8.87;;
3943;SDS011;1986;52.546;13.428;2022-10-17T00:26:51;10.40;;;10.10;;
3943;SDS011;1986;52.546;13.428;2022-10-17T00:29:18;9.70;;;9.50;;
3943;SDS011;1986;52.546;13.428;2022-10-17T00:31:46;10.00;;;9.80;;
3943;SDS011;1986;52.546;13.428;2022-10-17T00:34:13;10.30;;;10.10;;
3943;SDS011;1986;52.546;13.428;2022-10-17T00:36:40;9.90;;;9.70;;
3943;SDS011;1986;52.546;13.428;2022-10-17T00:39:07;9.87;;;9.67;;
3943;SDS011;1986;52.546;13.428;2022-10-17T00:41:34;10.67;;;10.37;;
3943;SDS011;1986;52.546;13.428;2022-10-17T00:44:02;8.90;;;8.70;;
3943;SDS011;1986;52.546;13.428;2022-10-17T00:46:30;8.50;;;8.30;;
3943;SDS011;1986;52.546;13.428;2022-10-17T00:49:01;10.50;;;10.20;;
3943;SDS011;1986;52.546;13.428;2022-10-17T00:51:32;8.87;;;8.67;;
3943;SDS011;1986;52.546;13.428;2022-10-17T00:54:02;9.00;;;8.80;;
3943;SDS011;1986;52.546;13.428;2022-10-17T00:56:30;9.30;;;9.10;;
3943;SDS011;1986;52.546;13.428;2022-10-17T00:58:58;8.80;;;8.60;;
3943;SDS011;1986;52.546;13.428;2022-10-17T01:01:24;8.40;;;8.20;;
3943;SDS011;1986;52.546;13.428;2022-10-17T01:03:51;11.87;;;11.30;;
3943;SDS011;1986;52.546;13.428;2022-10-17T01:06:20;8.63;;;8.43;;
3943;SDS011;1986;52.546;13.428;2022-10-17T01:08:47;8.43;;;8.23;;
3943;SDS011;1986;52.546;13.428;2022-10-17T01:11:19;9.23;;;8.80;;
3943;SDS011;1986;52.546;13.428;2022-10-17T01:13:51;8.60;;;8.40;;
3943;SDS011;1986;52.546;13.428;2022-10-17T01:16:25;9.20;;;9.00;;
3943;SDS011;1986;52.546;13.428;2022-10-17T01:19:02;8.60;;;8.40;;
3943;SDS011;1986;52.546;13.428;2022-10-17T01:21:47;8.30;;;8.10;;
3943;SDS011;1986;52.546;13.428;2022-10-17T01:24:27;8.43;;;8.27;;
3943;SDS011;1986;52.546;13.428;2022-10-17T01:29:59;8.10;;;8.00;;
3943;SDS011;1986;52.546;13.428;2022-10-17T01:32:46;8.80;;;8.60;;
3943;SDS011;1986;52.546;13.428;2022-10-17T01:35:20;8.37;;;8.23;;
3943;SDS011;1986;52.546;13.428;2022-10-17T01:37:52;8.37;;;8.17;;
3943;SDS011;1986;52.546;13.428;2022-10-17T01:40:24;8.80;;;8.60;;
3943;SDS011;1986;52.546;13.428;2022-10-17T01:42:56;8.47;;;8.27;;
3943;SDS011;1986;52.546;13.428;2022-10-17T01:45:28;8.53;;;8.33;;
3943;SDS011;1986;52.546;13.428;2022-10-17T01:48:01;6.80;;;6.70;;
3943;SDS011;1986;52.546;13.428;2022-10-17T01:50:32;8.30;;;8.00;;
3943;SDS011;1986;52.546;13.428;2022-10-17T01:53:04;6.60;;;6.50;;
3943;SDS011;1986;52.546;13.428;2022-10-17T01:55:35;6.70;;;6.60;;
3943;SDS011;1986;52.546;13.428;2022-10-17T01:58:06;8.13;;;7.77;;
3943;SDS011;1986;52.546;13.428;2022-10-17T02:00:35;6.80;;;6.67;;
3943;SDS011;1986;52.546;13.428;2022-10-17T02:03:06;6.00;;;5.90;;
3943;SDS011;1986;52.546;13.428;2022-10-17T02:05:36;6.00;;;5.90;;
3943;SDS011;1986;52.546;13.428;2022-10-17T02:08:05;5.70;;;5.60;;
3943;SDS011;1986;52.546;13.428;2022-10-17T02:10:34;5.20;;;5.10;;
3943;SDS011;1986;52.546;13.428;2022-10-17T02:13:05;5.40;;;5.30;;
3943;SDS011;1986;52.546;13.428;2022-10-17T02:15:54;6.63;;;6.07;;
3943;SDS011;1986;52.546;13.428;2022-10-17T02:18:34;5.00;;;4.90;;
3943;SDS011;1986;52.546;13.428;2022-10-17T02:21:14;4.40;;;4.30;;
3943;SDS011;1986;52.546;13.428;2022-10-17T02:23:46;4.43;;;4.33;;
3943;SDS011;1986;52.546;13.428;2022-10-17T02:26:18;4.30;;;4.20;;
3943;SDS011;1986;52.546;13.428;2022-10-17T02:28:52;3.90;;;3.80;;
3943;SDS011;1986;52.546;13.428;2022-10-17T02:31:28;3.80;;;3.70;;
3943;SDS011;1986;52.546;13.428;2022-10-17T02:34:00;3.40;;;3.40;;
3943;SDS011;1986;52.546;13.428;2022-10-17T02:36:31;4.27;;;4.17;;
3943;SDS011;1986;52.546;13.428;2022-10-17T02:39:02;3.47;;;3.47;;
3943;SDS011;1986;52.546;13.428;2022-10-17T02:41:30;3.70;;;3.67;;
3943;SDS011;1986;52.546;13.428;2022-10-17T02:43:58;4.23;;;4.13;;
3943;SDS011;1986;52.546;13.428;2022-10-17T02:46:27;3.63;;;3.60;;
3943;SDS011;1986;52.546;13.428;2022-10-17T02:48:56;4.00;;;3.90;;
3943;SDS011;1986;52.546;13.428;2022-10-17T02:51:29;4.97;;;4.77;;
3943;SDS011;1986;52.546;13.428;2022-10-17T02:54:02;3.93;;;3.83;;
3943;SDS011;1986;52.546;13.428;2022-10-17T02:56:35;4.00;;;3.90;;
3943;SDS011;1986;52.546;13.428;2022-10-17T02:59:06;4.80;;;4.70;;
3943;SDS011;1986;52.546;13.428;2022-10-17T03:01:39;4.10;;;4.00;;
3943;SDS011;1986;52.546;13.428;2022-10-17T03:04:07;7.40;;;6.90;;
3943;SDS011;1986;52.546;13.428;2022-10-17T03:06:37;4.27;;;4.17;;
3943;SDS011;1986;52.546;13.428;2022-10-17T03:09:04;3.60;;;3.50;;
3943;SDS011;1986;52.546;13.428;2022-10-17T03:11:31;4.10;;;4.00;;
3943;SDS011;1986;52.546;13.428;2022-10-17T03:13:58;4.20;;;4.10;;
3943;SDS011;1986;52.546;13.428;2022-10-17T03:16:24;3.97;;;3.87;;
3943;SDS011;1986;52.546;13.428;2022-10-17T03:18:51;5.13;;;4.93;;
3943;SDS011;1986;52.546;13.428;2022-10-17T03:21:18;3.83;;;3.73;;
3943;SDS011;1986;52.546;13.428;2022-10-17T03:23:46;3.80;;;3.70;;
3943;SDS011;1986;52.546;13.428;2022-10-17T03:26:13;4.30;;;4.20;;
3943;SDS011;1986;52.546;13.428;2022-10-17T03:28:40;5.07;;;4.87;;
3943;SDS011;1986;52.546;13.428;2022-10-17T03:31:07;4.50;;;4.40;;
3943;SDS011;1986;52.546;13.428;2022-10-17T03:33:35;3.90;;;3.80;;
3943;SDS011;1986;52.546;13.428;2022-10-17T03:36:05;4.37;;;4.27;;
3943;SDS011;1986;52.546;13.428;2022-10-17T03:38:33;4.60;;;4.50;;
3943;SDS011;1986;52.546;13.428;2022-10-17T03:41:01;4.50;;;4.40;;
3943;SDS011;1986;52.546;13.428;2022-10-17T03:43:28;4.37;;;4.27;;
3943;SDS011;1986;52.546;13.428;2022-10-17T03:45:55;4.60;;;4.50;;
3943;SDS011;1986;52.546;13.428;2022-10-17T03:48:23;4.10;;;4.00;;
3943;SDS011;1986;52.546;13.428;2022-10-17T03:50:50;4.10;;;4.00;;
3943;SDS011;1986;52.546;13.428;2022-10-17T03:53:17;4.80;;;4.70;;
3943;SDS011;1986;52.546;13.428;2022-10-17T03:55:44;7.13;;;6.70;;
3943;SDS011;1986;52.546;13.428;2022-10-17T03:58:12;3.70;;;3.60;;
3943;SDS011;1986;52.546;13.428;2022-10-17T04:00:39;3.73;;;3.53;;
3943;SDS011;1986;52.546;13.428;2022-10-17T04:03:05;4.20;;;4.10;;
3943;SDS011;1986;52.546;13.428;2022-10-17T04:05:32;5.37;;;5.17;;
3943;SDS011;1986;52.546;13.428;2022-10-17T04:07:59;2.87;;;2.87;;
3943;SDS011;1986;52.546;13.428;2022-10-17T04:10:26;3.00;;;3.00;;
3943;SDS011;1986;52.546;13.428;2022-10-17T04:12:53;2.80;;;2.80;;
3943;SDS011;1986;52.546;13.428;2022-10-17T04:15:22;3.10;;;3.00;;
3943;SDS011;1986;52.546;13.428;2022-10-17T04:17:48;3.23;;;3.23;;
3943;SDS011;1986;52.546;13.428;2022-10-17T04:20:15;3.93;;;3.83;;
3943;SDS011;1986;52.546;13.428;2022-10-17T04:22:42;3.70;;;3.60;;
3943;SDS011;1986;52.546;13.428;2022-10-17T04:25:09;3.17;;;3.17;;
3943;SDS011;1986;52.546;13.428;2022-10-17T04:27:36;3.20;;;3.20;;
3943;SDS011;1986;52.546;13.428;2022-10-17T04:30:03;3.03;;;3.03;;
3943;SDS011;1986;52.546;13.428;2022-10-17T04:32:32;3.87;;;3.77;;
3943;SDS011;1986;52.546;13.428;2022-10-17T04:35:02;3.70;;;3.70;;
3943;SDS011;1986;52.546;13.428;2022-10-17T04:37:29;3.67;;;3.67;;
3943;SDS011;1986;52.546;13.428;2022-10-17T04:39:55;3.40;;;3.40;;
3943;SDS011;1986;52.546;13.428;2022-10-17T04:42:22;3.20;;;3.20;;
3943;SDS011;1986;52.546;13.428;2022-10-17T04:44:49;3.40;;;3.40;;
3943;SDS011;1986;52.546;13.428;2022-10-17T04:47:16;4.67;;;4.47;;
3943;SDS011;1986;52.546;13.428;2022-10-17T04:49:44;3.33;;;3.33;;
3943;SDS011;1986;52.546;13.428;2022-10-17T04:52:11;3.20;;;3.20;;
3943;SDS011;1986;52.546;13.428;2022-10-17T04:54:37;3.10;;;3.10;;
3943;SDS011;1986;52.546;13.428;2022-10-17T04:57:04;4.03;;;3.93;;
3943;SDS011;1986;52.546;13.428;2022-10-17T04:59:31;4.70;;;4.50;;
3943;SDS011;1986;52.546;13.428;2022-10-17T05:01:59;8.73;;;4.53;;
3943;SDS011;1986;52.546;13.428;2022-10-17T05:04:26;3.00;;;3.00;;
3943;SDS011;1986;52.546;13.428;2022-10-17T05:06:56;2.37;;;2.37;;
3943;SDS011;1986;52.546;13.428;2022-10-17T05:09:23;2.80;;;2.80;;
3943;SDS011;1986;52.546;13.428;2022-10-17T05:11:50;2.23;;;2.23;;
3943;SDS011;1986;52.546;13.428;2022-10-17T05:14:17;2.40;;;2.40;;
3943;SDS011;1986;52.546;13.428;2022-10-17T05:16:43;2.40;;;2.40;;
3943;SDS011;1986;52.546;13.428;2022-10-17T05:19:10;2.53;;;2.53;;
3943;SDS011;1986;52.546;13.428;2022-10-17T05:21:37;2.40;;;2.40;;
3943;SDS011;1986;52.546;13.428;2022-10-17T05:24:06;3.70;;;3.27;;
3943;SDS011;1986;52.546;13.428;2022-10-17T05:26:33;2.80;;;2.70;;
3943;SDS011;1986;52.546;13.428;2022-10-17T05:29:02;7.57;;;4.50;;
3943;SDS011;1986;52.546;13.428;2022-10-17T05:31:30;3.30;;;3.10;;
3943;SDS011;1986;52.546;13.428;2022-10-17T05:33:58;3.10;;;3.00;;
3943;SDS011;1986;52.546;13.428;2022-10-17T05:36:25;3.37;;;3.07;;
3943;SDS011;1986;52.546;13.428;2022-10-17T05:38:52;3.80;;;3.57;;
3943;SDS011;1986;52.546;13.428;2022-10-17T05:41:20;3.87;;;3.57;;
3943;SDS011;1986;52.546;13.428;2022-10-17T05:43:47;3.83;;;3.53;;
3943;SDS011;1986;52.546;13.428;2022-10-17T05:46:14;1.50;;;1.50;;
3943;SDS011;1986;52.546;13.428;2022-10-17T05:48:41;1.30;;;1.30;;
3943;SDS011;1986;52.546;13.428;2022-10-17T05:51:08;5.63;;;3.20;;
3943;SDS011;1986;52.546;13.428;2022-10-17T05:53:37;3.63;;;3.40;;
3943;SDS011;1986;52.546;13.428;2022-10-17T05:56:06;3.00;;;2.90;;
3943;SDS011;1986;52.546;13.428;2022-10-17T05:58:35;4.03;;;3.83;;
3943;SDS011;1986;52.546;13.428;2022-10-17T06:01:06;3.03;;;2.90;;
3943;SDS011;1986;52.546;13.428;2022-10-17T06:03:33;3.10;;;2.90;;
3943;SDS011;1986;52.546;13.428;2022-10-17T06:06:03;1.70;;;1.63;;
3943;SDS011;1986;52.546;13.428;2022-10-17T06:08:31;4.47;;;4.07;;
3943;SDS011;1986;52.546;13.428;2022-10-17T06:10:58;1.93;;;1.83;;
3943;SDS011;1986;52.546;13.428;2022-10-17T06:13:26;1.97;;;1.23;;
3943;SDS011;1986;52.546;13.428;2022-10-17T06:15:56;5.00;;;4.50;;
3943;SDS011;1986;52.546;13.428;2022-10-17T06:18:23;2.40;;;2.30;;
3943;SDS011;1986;52.546;13.428;2022-10-17T06:20:51;2.53;;;2.43;;
3943;SDS011;1986;52.546;13.428;2022-10-17T06:23:27;1.00;;;1.00;;
3943;SDS011;1986;52.546;13.428;2022-10-17T06:25:56;2.97;;;1.97;;
3943;SDS011;1986;52.546;13.428;2022-10-17T06:28:24;7.20;;;4.80;;
3943;SDS011;1986;52.546;13.428;2022-10-17T06:30:50;1.73;;;1.63;;
3943;SDS011;1986;52.546;13.428;2022-10-17T06:33:19;1.30;;;1.30;;
3943;SDS011;1986;52.546;13.428;2022-10-17T06:35:49;1.63;;;1.63;;
3943;SDS011;1986;52.546;13.428;2022-10-17T06:38:16;2.03;;;2.03;;
3943;SDS011;1986;52.546;13.428;2022-10-17T06:40:43;5.33;;;4.73;;
3943;SDS011;1986;52.546;13.428;2022-10-17T06:43:10;4.73;;;4.33;;
3943;SDS011;1986;52.546;13.428;2022-10-17T06:45:37;2.20;;;2.20;;
3943;SDS011;1986;52.546;13.428;2022-10-17T06:48:06;1.73;;;1.73;;
3943;SDS011;1986;52.546;13.428;2022-10-17T06:50:35;3.17;;;2.97;;
3943;SDS011;1986;52.546;13.428;2022-10-17T06:53:04;4.30;;;3.97;;
3943;SDS011;1986;52.546;13.428;2022-10-17T06:55:31;3.10;;;2.97;;
3943;SDS011;1986;52.546;13.428;2022-10-17T06:57:58;2.90;;;2.80;;
3943;SDS011;1986;52.546;13.428;2022-10-17T07:00:25;2.83;;;2.73;;
3943;SDS011;1986;52.546;13.428;2022-10-17T07:02:52;2.30;;;2.30;;
3943;SDS011;1986;52.546;13.428;2022-10-17T07:05:19;6.70;;;6.27;;
3943;SDS011;1986;52.546;13.428;2022-10-17T07:07:47;5.07;;;4.00;;
3943;SDS011;1986;52.546;13.428;2022-10-17T07:10:14;5.57;;;5.37;;
3943;SDS011;1986;52.546;13.428;2022-10-17T07:12:41;3.73;;;3.43;;
3943;SDS011;1986;52.546;13.428;2022-10-17T07:15:10;2.63;;;2.63;;
3943;SDS011;1986;52.546;13.428;2022-10-17T07:17:37;4.07;;;3.87;;
3943;SDS011;1986;52.546;13.428;2022-10-17T07:20:04;6.40;;;5.97;;
3943;SDS011;1986;52.546;13.428;2022-10-17T07:22:31;6.27;;;6.07;;
3943;SDS011;1986;52.546;13.428;2022-10-17T07:24:59;4.47;;;4.37;;
3943;SDS011;1986;52.546;13.428;2022-10-17T07:27:26;6.23;;;6.00;;
3943;SDS011;1986;52.546;13.428;2022-10-17T07:29:53;8.00;;;7.67;;
3943;SDS011;1986;52.546;13.428;2022-10-17T07:32:20;6.40;;;6.30;;
3943;SDS011;1986;52.546;13.428;2022-10-17T07:34:47;8.30;;;7.87;;
3943;SDS011;1986;52.546;13.428;2022-10-17T07:37:13;8.70;;;8.50;;
3943;SDS011;1986;52.546;13.428;2022-10-17T07:39:41;7.70;;;7.50;;
3943;SDS011;1986;52.546;13.428;2022-10-17T07:42:09;9.40;;;9.20;;
3943;SDS011;1986;52.546;13.428;2022-10-17T07:44:38;9.10;;;8.90;;
3943;SDS011;1986;52.546;13.428;2022-10-17T07:47:05;10.40;;;10.20;;
3943;SDS011;1986;52.546;13.428;2022-10-17T07:49:32;9.90;;;9.70;;
3943;SDS011;1986;52.546;13.428;2022-10-17T07:51:59;11.30;;;11.00;;
3943;SDS011;1986;52.546;13.428;2022-10-17T07:54:25;10.40;;;10.20;;
3943;SDS011;1986;52.546;13.428;2022-10-17T07:56:52;12.53;;;12.03;;
3943;SDS011;1986;52.546;13.428;2022-10-17T07:59:21;11.70;;;11.40;;
3943;SDS011;1986;52.546;13.428;2022-10-17T08:01:48;16.77;;;15.07;;
3943;SDS011;1986;52.546;13.428;2022-10-17T08:04:15;12.50;;;12.20;;
3943;SDS011;1986;52.546;13.428;2022-10-17T08:06:41;13.10;;;12.70;;
3943;SDS011;1986;52.546;13.428;2022-10-17T08:09:09;13.20;;;12.80;;
3943;SDS011;1986;52.546;13.428;2022-10-17T08:11:37;13.33;;;12.93;;
3943;SDS011;1986;52.546;13.428;2022-10-17T08:14:04;13.30;;;12.87;;
3943;SDS011;1986;52.546;13.428;2022-10-17T08:16:33;13.40;;;13.00;;
3943;SDS011;1986;52.546;13.428;2022-10-17T08:19:00;14.40;;;13.90;;
3943;SDS011;1986;52.546;13.428;2022-10-17T08:21:27;13.50;;;13.10;;
3943;SDS011;1986;52.546;13.428;2022-10-17T08:23:54;15.93;;;15.13;;
3943;SDS011;1986;52.546;13.428;2022-10-17T08:26:21;13.20;;;12.80;;
3943;SDS011;1986;52.546;13.428;2022-10-17T08:28:48;12.20;;;11.90;;
3943;SDS011;1986;52.546;13.428;2022-10-17T08:31:15;13.33;;;12.93;;
3943;SDS011;1986;52.546;13.428;2022-10-17T08:33:45;12.97;;;12.57;;
3943;SDS011;1986;52.546;13.428;2022-10-17T08:36:13;13.70;;;13.30;;
3943;SDS011;1986;52.546;13.428;2022-10-17T08:38:42;14.40;;;13.80;;
3943;SDS011;1986;52.546;13.428;2022-10-17T08:41:12;14.00;;;13.60;;
3943;SDS011;1986;52.546;13.428;2022-10-17T08:46:34;15.43;;;14.60;;
3943;SDS011;1986;52.546;13.428;2022-10-17T08:49:13;13.50;;;13.10;;
3943;SDS011;1986;52.546;13.428;2022-10-17T08:51:46;15.27;;;14.67;;
3943;SDS011;1986;52.546;13.428;2022-10-17T08:54:18;13.90;;;13.50;;
3943;SDS011;1986;52.546;13.428;2022-10-17T08:56:50;14.63;;;14.13;;
3943;SDS011;1986;52.546;13.428;2022-10-17T08:59:24;14.70;;;14.20;;
3943;SDS011;1986;52.546;13.428;2022-10-17T09:01:54;15.00;;;14.50;;
3943;SDS011;1986;52.546;13.428;2022-10-17T09:07:23;16.00;;;15.50;;
3943;SDS011;1986;52.546;13.428;2022-10-17T09:09:58;16.10;;;15.50;;
3943;SDS011;1986;52.546;13.428;2022-10-17T09:12:35;17.70;;;16.47;;
3943;SDS011;1986;52.546;13.428;2022-10-17T09:15:19;16.67;;;15.97;;
3943;SDS011;1986;52.546;13.428;2022-10-17T09:18:07;15.93;;;15.33;;
3943;SDS011;1986;52.546;13.428;2022-10-17T09:20:41;16.30;;;15.70;;
3943;SDS011;1986;52.546;13.428;2022-10-17T09:23:12;16.57;;;15.93;;
3943;SDS011;1986;52.546;13.428;2022-10-17T09:25:42;17.40;;;16.70;;
3943;SDS011;1986;52.546;13.428;2022-10-17T09:28:13;17.00;;;16.40;;
3943;SDS011;1986;52.546;13.428;2022-10-17T09:30:43;18.93;;;18.13;;
3943;SDS011;1986;52.546;13.428;2022-10-17T09:33:13;17.13;;;16.47;;
3943;SDS011;1986;52.546;13.428;2022-10-17T09:35:42;17.50;;;16.80;;
3943;SDS011;1986;52.546;13.428;2022-10-17T09:38:12;18.50;;;17.60;;
3943;SDS011;1986;52.546;13.428;2022-10-17T09:40:42;17.67;;;16.97;;
3943;SDS011;1986;52.546;13.428;2022-10-17T09:43:12;17.10;;;16.40;;
3943;SDS011;1986;52.546;13.428;2022-10-17T09:45:42;18.50;;;17.60;;
3943;SDS011;1986;52.546;13.428;2022-10-17T09:48:17;17.50;;;16.70;;
3943;SDS011;1986;52.546;13.428;2022-10-17T09:50:52;17.20;;;16.50;;
3943;SDS011;1986;52.546;13.428;2022-10-17T09:53:22;17.97;;;17.17;;
3943;SDS011;1986;52.546;13.428;2022-10-17T09:55:52;17.20;;;16.50;;
3943;SDS011;1986;52.546;13.428;2022-10-17T09:58:22;17.40;;;16.70;;
3943;SDS011;1986;52.546;13.428;2022-10-17T10:00:58;18.27;;;17.47;;
3943;SDS011;1986;52.546;13.428;2022-10-17T10:03:41;20.77;;;19.37;;
3943;SDS011;1986;52.546;13.428;2022-10-17T10:06:13;18.43;;;17.63;;
3943;SDS011;1986;52.546;13.428;2022-10-17T10:08:47;18.47;;;17.57;;
3943;SDS011;1986;52.546;13.428;2022-10-17T10:11:17;18.17;;;17.37;;
3943;SDS011;1986;52.546;13.428;2022-10-17T10:13:47;18.83;;;17.87;;
3943;SDS011;1986;52.546;13.428;2022-10-17T10:16:17;18.50;;;17.70;;
3943;SDS011;1986;52.546;13.428;2022-10-17T10:18:46;18.80;;;17.90;;
3943;SDS011;1986;52.546;13.428;2022-10-17T10:21:15;18.17;;;17.37;;
3943;SDS011;1986;52.546;13.428;2022-10-17T10:23:44;18.00;;;17.20;;
3943;SDS011;1986;52.546;13.428;2022-10-17T10:26:29;17.50;;;16.70;;
3943;SDS011;1986;52.546;13.428;2022-10-17T10:29:00;19.30;;;18.30;;
3943;SDS011;1986;52.546;13.428;2022-10-17T10:31:30;18.47;;;17.53;;
3943;SDS011;1986;52.546;13.428;2022-10-17T10:34:00;19.77;;;18.33;;
3943;SDS011;1986;52.546;13.428;2022-10-17T10:36:51;18.27;;;17.40;;
3943;SDS011;1986;52.546;13.428;2022-10-17T10:39:26;19.03;;;18.20;;
3943;SDS011;1986;52.546;13.428;2022-10-17T10:42:07;18.80;;;18.00;;
3943;SDS011;1986;52.546;13.428;2022-10-17T10:44:45;18.70;;;17.80;;
3943;SDS011;1986;52.546;13.428;2022-10-17T10:47:14;19.10;;;18.20;;
3943;SDS011;1986;52.546;13.428;2022-10-17T10:49:45;18.47;;;17.57;;
3943;SDS011;1986;52.546;13.428;2022-10-17T10:52:17;19.00;;;18.10;;
3943;SDS011;1986;52.546;13.428;2022-10-17T10:54:57;18.70;;;17.80;;
3943;SDS011;1986;52.546;13.428;2022-10-17T10:57:30;19.00;;;18.00;;
3943;SDS011;1986;52.546;13.428;2022-10-17T11:00:02;20.33;;;19.23;;
3943;SDS011;1986;52.546;13.428;2022-10-17T11:02:37;18.90;;;18.00;;
3943;SDS011;1986;52.546;13.428;2022-10-17T11:05:10;18.80;;;17.90;;
3943;SDS011;1986;52.546;13.428;2022-10-17T11:07:45;19.00;;;18.10;;
3943;SDS011;1986;52.546;13.428;2022-10-17T11:10:21;19.40;;;18.50;;
3943;SDS011;1986;52.546;13.428;2022-10-17T11:12:53;19.03;;;18.13;;
3943;SDS011;1986;52.546;13.428;2022-10-17T11:15:26;19.97;;;18.97;;
3943;SDS011;1986;52.546;13.428;2022-10-17T11:17:59;20.33;;;19.33;;
3943;SDS011;1986;52.546;13.428;2022-10-17T11:20:32;19.50;;;18.50;;
3943;SDS011;1986;52.546;13.428;2022-10-17T11:23:09;20.00;;;19.00;;
3943;SDS011;1986;52.546;13.428;2022-10-17T11:25:44;20.30;;;19.20;;
3943;SDS011;1986;52.546;13.428;2022-10-17T11:28:13;23.13;;;21.83;;
3943;SDS011;1986;52.546;13.428;2022-10-17T11:30:44;20.90;;;19.53;;
3943;SDS011;1986;52.546;13.428;2022-10-17T11:33:21;20.10;;;19.10;;
3943;SDS011;1986;52.546;13.428;2022-10-17T11:35:53;20.33;;;19.23;;
3943;SDS011;1986;52.546;13.428;2022-10-17T11:38:33;20.97;;;19.80;;
3943;SDS011;1986;52.546;13.428;2022-10-17T11:41:04;22.67;;;21.37;;
3943;SDS011;1986;52.546;13.428;2022-10-17T11:43:34;20.87;;;19.67;;
3943;SDS011;1986;52.546;13.428;2022-10-17T11:46:09;20.87;;;19.67;;
3943;SDS011;1986;52.546;13.428;2022-10-17T11:48:43;21.40;;;20.20;;
3943;SDS011;1986;52.546;13.428;2022-10-17T11:51:16;20.90;;;19.80;;
3943;SDS011;1986;52.546;13.428;2022-10-17T11:53:48;20.50;;;19.40;;
3943;SDS011;1986;52.546;13.428;2022-10-17T11:56:21;21.53;;;20.33;;
3943;SDS011;1986;52.546;13.428;2022-10-17T11:58:55;21.17;;;19.97;;
3943;SDS011;1986;52.546;13.428;2022-10-17T12:01:42;21.33;;;20.13;;
3943;SDS011;1986;52.546;13.428;2022-10-17T12:04:18;23.53;;;21.67;;
3943;SDS011;1986;52.546;13.428;2022-10-17T12:06:59;21.10;;;20.00;;
3943;SDS011;1986;52.546;13.428;2022-10-17T12:09:39;21.10;;;19.90;;
3943;SDS011;1986;52.546;13.428;2022-10-17T12:12:22;21.30;;;20.10;;
3943;SDS011;1986;52.546;13.428;2022-10-17T12:14:50;21.80;;;20.60;;
3943;SDS011;1986;52.546;13.428;2022-10-17T12:17:24;21.83;;;20.63;;
3943;SDS011;1986;52.546;13.428;2022-10-17T12:22:49;21.70;;;20.40;;
3943;SDS011;1986;52.546;13.428;2022-10-17T12:25:20;21.20;;;20.10;;
3943;SDS011;1986;52.546;13.428;2022-10-17T12:27:48;21.00;;;19.80;;
3943;SDS011;1986;52.546;13.428;2022-10-17T12:30:17;21.50;;;20.30;;
3943;SDS011;1986;52.546;13.428;2022-10-17T12:32:53;22.27;;;20.97;;
3943;SDS011;1986;52.546;13.428;2022-10-17T12:35:26;21.50;;;20.30;;
3943;SDS011;1986;52.546;13.428;2022-10-17T12:38:01;25.50;;;23.70;;
3943;SDS011;1986;52.546;13.428;2022-10-17T12:40:55;21.93;;;20.73;;
3943;SDS011;1986;52.546;13.428;2022-10-17T12:43:47;21.60;;;20.40;;
3943;SDS011;1986;52.546;13.428;2022-10-17T12:55:08;21.63;;;20.33;;
3943;SDS011;1986;52.546;13.428;2022-10-17T12:57:49;21.50;;;20.30;;
3943;SDS011;1986;52.546;13.428;2022-10-17T13:00:21;21.70;;;20.40;;
3943;SDS011;1986;52.546;13.428;2022-10-17T13:03:01;22.83;;;21.33;;
3943;SDS011;1986;52.546;13.428;2022-10-17T13:05:32;22.80;;;21.40;;
3943;SDS011;1986;52.546;13.428;2022-10-17T13:08:01;21.63;;;20.43;;
3943;SDS011;1986;52.546;13.428;2022-10-17T13:10:31;20.50;;;19.40;;
3943;SDS011;1986;52.546;13.428;2022-10-17T13:13:03;21.10;;;19.90;;
3943;SDS011;1986;52.546;13.428;2022-10-17T13:15:33;23.03;;;21.53;;
3943;SDS011;1986;52.546;13.428;2022-10-17T13:18:01;21.60;;;20.30;;
3943;SDS011;1986;52.546;13.428;2022-10-17T13:20:29;22.37;;;21.03;;
3943;SDS011;1986;52.546;13.428;2022-10-17T13:22:57;22.17;;;20.90;;
3943;SDS011;1986;52.546;13.428;2022-10-17T13:25:25;21.10;;;19.90;;
3943;SDS011;1986;52.546;13.428;2022-10-17T13:28:05;20.60;;;19.50;;
3943;SDS011;1986;52.546;13.428;2022-10-17T13:30:44;21.80;;;20.60;;
3943;SDS011;1986;52.546;13.428;2022-10-17T13:33:18;22.70;;;21.40;;
3943;SDS011;1986;52.546;13.428;2022-10-17T13:36:00;22.07;;;20.87;;
3943;SDS011;1986;52.546;13.428;2022-10-17T13:38:30;22.60;;;21.30;;
3943;SDS011;1986;52.546;13.428;2022-10-17T13:41:03;21.63;;;20.40;;
3943;SDS011;1986;52.546;13.428;2022-10-17T13:43:43;21.33;;;20.03;;
3943;SDS011;1986;52.546;13.428;2022-10-17T13:46:15;23.63;;;21.60;;
3943;SDS011;1986;52.546;13.428;2022-10-17T13:48:49;22.73;;;21.13;;
3943;SDS011;1986;52.546;13.428;2022-10-17T13:51:16;22.20;;;20.90;;
3943;SDS011;1986;52.546;13.428;2022-10-17T13:53:45;21.53;;;20.33;;
3943;SDS011;1986;52.546;13.428;2022-10-17T13:56:16;22.03;;;20.73;;
3943;SDS011;1986;52.546;13.428;2022-10-17T13:58:48;21.20;;;20.00;;
3943;SDS011;1986;52.546;13.428;2022-10-17T14:01:21;21.40;;;20.20;;
3943;SDS011;1986;52.546;13.428;2022-10-17T14:03:49;22.03;;;20.80;;
3943;SDS011;1986;52.546;13.428;2022-10-17T14:06:18;23.00;;;21.70;;
3943;SDS011;1986;52.546;13.428;2022-10-17T14:08:50;23.17;;;21.77;;
3943;SDS011;1986;52.546;13.428;2022-10-17T14:11:31;23.27;;;21.87;;
3943;SDS011;1986;52.546;13.428;2022-10-17T14:14:04;22.27;;;20.97;;
3943;SDS011;1986;52.546;13.428;2022-10-17T14:16:40;24.17;;;22.77;;
3943;SDS011;1986;52.546;13.428;2022-10-17T14:19:14;82.93;;;27.43;;
3943;SDS011;1986;52.546;13.428;2022-10-17T14:21:46;24.07;;;22.57;;
3943;SDS011;1986;52.546;13.428;2022-10-17T14:24:15;23.93;;;22.53;;
3943;SDS011;1986;52.546;13.428;2022-10-17T14:26:54;21.63;;;20.43;;
3943;SDS011;1986;52.546;13.428;2022-10-17T14:29:25;21.80;;;20.60;;
3943;SDS011;1986;52.546;13.428;2022-10-17T14:31:57;21.43;;;20.23;;
3943;SDS011;1986;52.546;13.428;2022-10-17T14:34:30;22.10;;;20.80;;
3943;SDS011;1986;52.546;13.428;2022-10-17T14:36:59;23.00;;;21.70;;
3943;SDS011;1986;52.546;13.428;2022-10-17T14:39:27;22.50;;;21.30;;
3943;SDS011;1986;52.546;13.428;2022-10-17T14:41:54;22.57;;;21.37;;
3943;SDS011;1986;52.546;13.428;2022-10-17T14:44:23;22.17;;;20.97;;
3943;SDS011;1986;52.546;13.428;2022-10-17T14:46:56;21.67;;;20.47;;
3943;SDS011;1986;52.546;13.428;2022-10-17T14:49:27;21.40;;;20.30;;
3943;SDS011;1986;52.546;13.428;2022-10-17T14:52:08;21.93;;;20.73;;
3943;SDS011;1986;52.546;13.428;2022-10-17T14:54:37;22.20;;;20.83;;
3943;SDS011;1986;52.546;13.428;2022-10-17T14:57:07;20.70;;;19.60;;
3943;SDS011;1986;52.546;13.428;2022-10-17T14:59:41;21.30;;;20.10;;
3943;SDS011;1986;52.546;13.428;2022-10-17T15:02:09;21.83;;;20.53;;
3943;SDS011;1986;52.546;13.428;2022-10-17T15:04:36;21.67;;;20.40;;
3943;SDS011;1986;52.546;13.428;2022-10-17T15:07:03;22.23;;;21.00;;
3943;SDS011;1986;52.546;13.428;2022-10-17T15:09:30;21.50;;;20.30;;
3943;SDS011;1986;52.546;13.428;2022-10-17T15:11:58;21.90;;;20.70;;
3943;SDS011;1986;52.546;13.428;2022-10-17T15:14:26;21.63;;;20.43;;
3943;SDS011;1986;52.546;13.428;2022-10-17T15:16:54;21.20;;;20.00;;
3943;SDS011;1986;52.546;13.428;2022-10-17T15:19:21;21.60;;;20.60;;
3943;SDS011;1986;52.546;13.428;2022-10-17T15:21:48;20.70;;;19.60;;
3943;SDS011;1986;52.546;13.428;2022-10-17T15:24:15;21.30;;;20.10;;
3943;SDS011;1986;52.546;13.428;2022-10-17T15:26:42;20.97;;;19.77;;
3943;SDS011;1986;52.546;13.428;2022-10-17T15:29:09;21.50;;;20.20;;